sensor_id;sensor_type;location;lat;lon;timestamp;pressure;altitude;pressure_sealevel;temperature;humidity
3796;BME280;1913;50.660;7.834;2023-05-27T00:00:05;150432.56;;;9.67;100.00
3796;BME280;1913;50.660;7.834;2023-05-27T00:02:32;150416.28;;;9.61;100.00
3796;BME280;1913;50.660;7.834;2023-05-27T00:04:57;150404.94;;;9.56;100.00
3796;BME280;1913;50.660;7.834;2023-05-27T00:07:22;150417.53;;;9.61;100.00
3796;BME280;1913;50.660;7.834;2023-05-27T00:09:48;150422.50;;;9.63;100.00
3796;BME280;1913;50.660;7.834;2023-05-27T00:12:13;150432.56;;;9.67;100.00
3796;BME280;1913;50.660;7.834;2023-05-27T00:14:39;150423.75;;;9.64;100.00
3796;BME280;1913;50.660;7.834;2023-05-27T00:17:04;150427.56;;;9.65;100.00
3796;BME280;1913;50.660;7.834;2023-05-27T00:19:30;150413.72;;;9.59;100.00
3796;BME280;1913;50.660;7.834;2023-05-27T00:21:56;150404.94;;;9.56;100.00
3796;BME280;1913;50.660;7.834;2023-05-27T00:24:21;150396.16;;;9.52;100.00
3796;BME280;1913;50.660;7.834;2023-05-27T00:26:47;150393.66;;;9.51;100.00
3796;BME280;1913;50.660;7.834;2023-05-27T00:29:16;150402.44;;;9.55;100.00
3796;BME280;1913;50.660;7.834;2023-05-27T00:31:42;150393.66;;;9.51;100.00
3796;BME280;1913;50.660;7.834;2023-05-27T00:34:07;150403.69;;;9.55;100.00
3796;BME280;1913;50.660;7.834;2023-05-27T00:36:32;150409.97;;;9.58;100.00
3796;BME280;1913;50.660;7.834;2023-05-27T00:38:58;150411.22;;;9.58;100.00
3796;BME280;1913;50.660;7.834;2023-05-27T00:41:24;150420.03;;;9.62;100.00
3796;BME280;1913;50.660;7.834;2023-05-27T00:43:49;150431.31;;;9.67;100.00
3796;BME280;1913;50.660;7.834;2023-05-27T00:46:15;150442.63;;;9.71;100.00
3796;BME280;1913;50.660;7.834;2023-05-27T00:48:41;150450.13;;;9.74;100.00
3796;BME280;1913;50.660;7.834;2023-05-27T00:51:06;150435.09;;;9.68;100.00
3796;BME280;1913;50.660;7.834;2023-05-27T00:53:38;150443.88;;;9.72;100.00
3796;BME280;1913;50.660;7.834;2023-05-27T00:56:05;150446.38;;;9.73;100.00
3796;BME280;1913;50.660;7.834;2023-05-27T00:58:31;150438.84;;;9.70;100.00
3796;BME280;1913;50.660;7.834;2023-05-27T01:00:57;150417.53;;;9.61;100.00
3796;BME280;1913;50.660;7.834;2023-05-27T01:03:22;150412.47;;;9.59;100.00
3796;BME280;1913;50.660;7.834;2023-05-27T01:05:52;150394.91;;;9.52;100.00
3796;BME280;1913;50.660;7.834;2023-05-27T01:08:29;150393.66;;;9.51;100.00
3796;BME280;1913;50.660;7.834;2023-05-27T01:10:56;150384.84;;;9.48;100.00
3796;BME280;1913;50.660;7.834;2023-05-27T01:13:45;150369.78;;;9.42;100.00
3796;BME280;1913;50.660;7.834;2023-05-27T01:16:12;150357.25;;;9.37;100.00
3796;BME280;1913;50.660;7.834;2023-05-27T01:18:46;150340.91;;;9.30;100.00
3796;BME280;1913;50.660;7.834;2023-05-27T01:21:15;150335.88;;;9.28;100.00
3796;BME280;1913;50.660;7.834;2023-05-27T01:23:47;150323.34;;;9.23;100.00
3796;BME280;1913;50.660;7.834;2023-05-27T01:26:12;150308.25;;;9.17;100.00
3796;BME280;1913;50.660;7.834;2023-05-27T01:28:38;150291.94;;;9.10;100.00
3796;BME280;1913;50.660;7.834;2023-05-27T01:31:17;150280.66;;;9.05;100.00
3796;BME280;1913;50.660;7.834;2023-05-27T01:34:09;150270.63;;;9.01;100.00
3796;BME280;1913;50.660;7.834;2023-05-27T01:36:39;150276.91;;;9.04;100.00
3796;BME280;1913;50.660;7.834;2023-05-27T01:39:10;150273.13;;;9.02;100.00
3796;BME280;1913;50.660;7.834;2023-05-27T01:41:37;150246.75;;;8.92;100.00
3796;BME280;1913;50.660;7.834;2023-05-27T01:44:04;150244.25;;;8.91;100.00
3796;BME280;1913;50.660;7.834;2023-05-27T01:46:29;150244.25;;;8.91;100.00
3796;BME280;1913;50.660;7.834;2023-05-27T01:48:55;150250.56;;;8.93;100.00
3796;BME280;1913;50.660;7.834;2023-05-27T01:51:20;150222.91;;;8.82;100.00
3796;BME280;1913;50.660;7.834;2023-05-27T01:53:45;150230.44;;;8.85;100.00
3796;BME280;1913;50.660;7.834;2023-05-27T01:56:11;150237.97;;;8.88;100.00
3796;BME280;1913;50.660;7.834;2023-05-27T01:58:36;150224.19;;;8.82;100.00
3796;BME280;1913;50.660;7.834;2023-05-27T02:01:01;150235.47;;;8.87;100.00
3796;BME280;1913;50.660;7.834;2023-05-27T02:03:27;150253.06;;;8.94;100.00
3796;BME280;1913;50.660;7.834;2023-05-27T02:05:52;150236.72;;;8.87;100.00
3796;BME280;1913;50.660;7.834;2023-05-27T02:08:17;150279.41;;;9.05;100.00
3796;BME280;1913;50.660;7.834;2023-05-27T02:10:43;150271.88;;;9.02;100.00
3796;BME280;1913;50.660;7.834;2023-05-27T02:13:08;150276.91;;;9.04;100.00
3796;BME280;1913;50.660;7.834;2023-05-27T02:15:34;150273.13;;;9.02;100.00
3796;BME280;1913;50.660;7.834;2023-05-27T02:17:59;150274.38;;;9.03;100.00
3796;BME280;1913;50.660;7.834;2023-05-27T02:20:24;150259.34;;;8.97;100.00
3796;BME280;1913;50.660;7.834;2023-05-27T02:22:50;150259.34;;;8.97;100.00
3796;BME280;1913;50.660;7.834;2023-05-27T02:25:16;150248.00;;;8.92;100.00
3796;BME280;1913;50.660;7.834;2023-05-27T02:27:42;150243.00;;;8.90;100.00
3796;BME280;1913;50.660;7.834;2023-05-27T02:30:10;150245.50;;;8.91;100.00
3796;BME280;1913;50.660;7.834;2023-05-27T02:32:35;150240.47;;;8.89;100.00
3796;BME280;1913;50.660;7.834;2023-05-27T02:35:01;150205.34;;;8.75;100.00
3796;BME280;1913;50.660;7.834;2023-05-27T02:37:26;150192.81;;;8.70;100.00
3796;BME280;1913;50.660;7.834;2023-05-27T02:39:53;150199.09;;;8.72;100.00
3796;BME280;1913;50.660;7.834;2023-05-27T02:42:20;150190.31;;;8.69;100.00
3796;BME280;1913;50.660;7.834;2023-05-27T02:44:45;150162.72;;;8.57;100.00
3796;BME280;1913;50.660;7.834;2023-05-27T02:47:10;150180.28;;;8.65;100.00
3796;BME280;1913;50.660;7.834;2023-05-27T02:49:36;150200.34;;;8.73;100.00
3796;BME280;1913;50.660;7.834;2023-05-27T02:52:01;150210.38;;;8.77;100.00
3796;BME280;1913;50.660;7.834;2023-05-27T02:54:26;150240.47;;;8.89;100.00
3796;BME280;1913;50.660;7.834;2023-05-27T02:56:52;150230.44;;;8.85;100.00
3796;BME280;1913;50.660;7.834;2023-05-27T02:59:17;150248.00;;;8.92;100.00
3796;BME280;1913;50.660;7.834;2023-05-27T03:01:43;150256.78;;;8.96;100.00
3796;BME280;1913;50.660;7.834;2023-05-27T03:04:08;150260.59;;;8.97;100.00
3796;BME280;1913;50.660;7.834;2023-05-27T03:06:33;150264.34;;;8.99;100.00
3796;BME280;1913;50.660;7.834;2023-05-27T03:08:59;150265.59;;;8.99;100.00
3796;BME280;1913;50.660;7.834;2023-05-27T03:11:25;150256.78;;;8.96;100.00
3796;BME280;1913;50.660;7.834;2023-05-27T03:13:51;150260.59;;;8.97;100.00
3796;BME280;1913;50.660;7.834;2023-05-27T03:16:16;150250.56;;;8.93;100.00
3796;BME280;1913;50.660;7.834;2023-05-27T03:18:45;150248.00;;;8.92;100.00
3796;BME280;1913;50.660;7.834;2023-05-27T03:21:11;150256.78;;;8.96;100.00
3796;BME280;1913;50.660;7.834;2023-05-27T03:23:37;150264.34;;;8.99;100.00
3796;BME280;1913;50.660;7.834;2023-05-27T03:26:03;150288.19;;;9.08;100.00
3796;BME280;1913;50.660;7.834;2023-05-27T03:28:28;150312.06;;;9.18;100.00
3796;BME280;1913;50.660;7.834;2023-05-27T03:30:53;150324.59;;;9.23;100.00
3796;BME280;1913;50.660;7.834;2023-05-27T03:33:25;150330.88;;;9.26;100.00
3796;BME280;1913;50.660;7.834;2023-05-27T03:35:50;150340.91;;;9.30;100.00
3796;BME280;1913;50.660;7.834;2023-05-27T03:38:16;150348.47;;;9.33;100.00
3796;BME280;1913;50.660;7.834;2023-05-27T03:40:41;150362.25;;;9.39;100.00
3796;BME280;1913;50.660;7.834;2023-05-27T03:43:07;150366.03;;;9.40;100.00
3796;BME280;1913;50.660;7.834;2023-05-27T03:45:32;150373.56;;;9.43;100.00
3796;BME280;1913;50.660;7.834;2023-05-27T03:47:58;150377.31;;;9.45;100.00
3796;BME280;1913;50.660;7.834;2023-05-27T03:50:23;150391.16;;;9.50;100.00
3796;BME280;1913;50.660;7.834;2023-05-27T03:52:48;150397.41;;;9.53;100.00
3796;BME280;1913;50.660;7.834;2023-05-27T03:55:14;150404.94;;;9.56;100.00
3796;BME280;1913;50.660;7.834;2023-05-27T03:57:42;150393.66;;;9.51;100.00
3796;BME280;1913;50.660;7.834;2023-05-27T04:00:08;150382.38;;;9.47;100.00
3796;BME280;1913;50.660;7.834;2023-05-27T04:02:36;150397.41;;;9.53;100.00
3796;BME280;1913;50.660;7.834;2023-05-27T04:05:02;150407.47;;;9.57;100.00
3796;BME280;1913;50.660;7.834;2023-05-27T04:07:28;150416.28;;;9.61;100.00
3796;BME280;1913;50.660;7.834;2023-05-27T04:09:54;150417.53;;;9.61;100.00
3796;BME280;1913;50.660;7.834;2023-05-27T04:12:20;150426.31;;;9.65;100.00
3796;BME280;1913;50.660;7.834;2023-05-27T04:14:46;150450.13;;;9.74;100.00
3796;BME280;1913;50.660;7.834;2023-05-27T04:17:11;150475.25;;;9.84;100.00
3796;BME280;1913;50.660;7.834;2023-05-27T04:19:36;150501.63;;;9.95;100.00
3796;BME280;1913;50.660;7.834;2023-05-27T04:22:02;150512.97;;;10.00;100.00
3796;BME280;1913;50.660;7.834;2023-05-27T04:24:27;150540.59;;;10.11;100.00
3796;BME280;1913;50.660;7.834;2023-05-27T04:26:53;150598.41;;;10.35;100.00
3796;BME280;1913;50.660;7.834;2023-05-27T04:29:18;150644.94;;;10.53;100.00
3796;BME280;1913;50.660;7.834;2023-05-27T04:31:45;150709.00;;;10.79;100.00
3796;BME280;1913;50.660;7.834;2023-05-27T04:34:10;150749.25;;;10.96;100.00
3796;BME280;1913;50.660;7.834;2023-05-27T04:36:36;150758.03;;;10.99;100.00
3796;BME280;1913;50.660;7.834;2023-05-27T04:39:02;150833.44;;;11.30;100.00
3796;BME280;1913;50.660;7.834;2023-05-27T04:41:30;150823.38;;;11.26;100.00
3796;BME280;1913;50.660;7.834;2023-05-27T04:43:58;150872.44;;;11.46;100.00
3796;BME280;1913;50.660;7.834;2023-05-27T04:46:26;150893.78;;;11.55;100.00
3796;BME280;1913;50.660;7.834;2023-05-27T04:48:54;150941.59;;;11.74;100.00
3796;BME280;1913;50.660;7.834;2023-05-27T04:51:21;150956.66;;;11.80;100.00
3796;BME280;1913;50.660;7.834;2023-05-27T04:53:46;150949.09;;;11.77;100.00
3796;BME280;1913;50.660;7.834;2023-05-27T04:56:15;150934.03;;;11.71;100.00
3796;BME280;1913;50.660;7.834;2023-05-27T04:58:43;150956.66;;;11.80;100.00
3796;BME280;1913;50.660;7.834;2023-05-27T05:01:12;150999.47;;;11.97;100.00
3796;BME280;1913;50.660;7.834;2023-05-27T05:03:45;150991.91;;;11.94;100.00
3796;BME280;1913;50.660;7.834;2023-05-27T05:06:27;151059.84;;;12.22;100.00
3796;BME280;1913;50.660;7.834;2023-05-27T05:08:53;151108.94;;;12.42;100.00
3796;BME280;1913;50.660;7.834;2023-05-27T05:11:18;151139.09;;;12.54;100.00
3796;BME280;1913;50.660;7.834;2023-05-27T05:13:43;151126.53;;;12.49;100.00
3796;BME280;1913;50.660;7.834;2023-05-27T05:16:09;151151.72;;;12.59;100.00
3796;BME280;1913;50.660;7.834;2023-05-27T05:18:34;151147.91;;;12.58;100.00
3796;BME280;1913;50.660;7.834;2023-05-27T05:21:00;151169.31;;;12.66;100.00
3796;BME280;1913;50.660;7.834;2023-05-27T05:23:25;151185.66;;;12.73;100.00
3796;BME280;1913;50.660;7.834;2023-05-27T05:25:51;151214.63;;;12.85;100.00
3796;BME280;1913;50.660;7.834;2023-05-27T05:28:23;151160.53;;;12.63;100.00
3796;BME280;1913;50.660;7.834;2023-05-27T05:30:48;151184.41;;;12.73;100.00
3796;BME280;1913;50.660;7.834;2023-05-27T05:33:13;151188.19;;;12.74;100.00
3796;BME280;1913;50.660;7.834;2023-05-27T05:35:39;151188.19;;;12.74;100.00
3796;BME280;1913;50.660;7.834;2023-05-27T05:38:04;151227.19;;;12.90;100.00
3796;BME280;1913;50.660;7.834;2023-05-27T05:40:30;151239.81;;;12.95;100.00
3796;BME280;1913;50.660;7.834;2023-05-27T05:42:55;151291.34;;;13.16;98.67
3796;BME280;1913;50.660;7.834;2023-05-27T05:45:21;151336.75;;;13.34;99.29
3796;BME280;1913;50.660;7.834;2023-05-27T05:47:46;151413.53;;;13.65;98.64
3796;BME280;1913;50.660;7.834;2023-05-27T05:50:11;151453.84;;;13.82;94.79
3796;BME280;1913;50.660;7.834;2023-05-27T05:52:37;151484.03;;;13.94;93.71
3796;BME280;1913;50.660;7.834;2023-05-27T05:55:02;151489.09;;;13.96;92.88
3796;BME280;1913;50.660;7.834;2023-05-27T05:57:28;151560.88;;;14.25;89.97
3796;BME280;1913;50.660;7.834;2023-05-27T05:59:57;151654.19;;;14.63;87.40
3796;BME280;1913;50.660;7.834;2023-05-27T06:02:22;151694.47;;;14.79;86.94
3796;BME280;1913;50.660;7.834;2023-05-27T06:04:48;151778.94;;;15.14;82.44
3796;BME280;1913;50.660;7.834;2023-05-27T06:07:13;151739.88;;;14.98;79.75
3796;BME280;1913;50.660;7.834;2023-05-27T06:09:39;151727.25;;;14.93;80.24
3796;BME280;1913;50.660;7.834;2023-05-27T06:12:04;151733.56;;;14.95;80.37
3796;BME280;1913;50.660;7.834;2023-05-27T06:14:30;151854.56;;;15.44;79.56
3796;BME280;1913;50.660;7.834;2023-05-27T06:16:55;151954.19;;;15.85;73.06
3796;BME280;1913;50.660;7.834;2023-05-27T06:19:20;151920.16;;;15.71;71.94
3796;BME280;1913;50.660;7.834;2023-05-27T06:21:46;152158.50;;;16.67;67.78
3796;BME280;1913;50.660;7.834;2023-05-27T06:24:11;152262.03;;;17.09;64.93
3796;BME280;1913;50.660;7.834;2023-05-27T06:26:36;152226.72;;;16.95;62.41
3796;BME280;1913;50.660;7.834;2023-05-27T06:29:02;152224.19;;;16.94;59.74
3796;BME280;1913;50.660;7.834;2023-05-27T06:31:27;152161.03;;;16.68;59.68
3796;BME280;1913;50.660;7.834;2023-05-27T06:33:53;152216.63;;;16.91;58.99
3796;BME280;1913;50.660;7.834;2023-05-27T06:36:19;152158.50;;;16.67;57.86
3796;BME280;1913;50.660;7.834;2023-05-27T06:38:44;152288.53;;;17.20;57.46
3796;BME280;1913;50.660;7.834;2023-05-27T06:41:10;152297.38;;;17.23;57.03
3796;BME280;1913;50.660;7.834;2023-05-27T06:43:35;152461.53;;;17.90;60.54
3796;BME280;1913;50.660;7.834;2023-05-27T06:46:01;152395.81;;;17.63;54.21
3796;BME280;1913;50.660;7.834;2023-05-27T06:48:26;152431.22;;;17.78;54.52
3796;BME280;1913;50.660;7.834;2023-05-27T06:50:52;152352.88;;;17.46;55.50
3796;BME280;1913;50.660;7.834;2023-05-27T06:53:17;152362.97;;;17.50;53.41
3796;BME280;1913;50.660;7.834;2023-05-27T06:55:42;152313.78;;;17.30;54.66
3796;BME280;1913;50.660;7.834;2023-05-27T06:58:08;152259.53;;;17.08;55.51
3796;BME280;1913;50.660;7.834;2023-05-27T07:00:33;152214.09;;;16.90;56.28
3796;BME280;1913;50.660;7.834;2023-05-27T07:02:59;152277.19;;;17.15;55.03
3796;BME280;1913;50.660;7.834;2023-05-27T07:05:25;152397.06;;;17.64;55.13
3796;BME280;1913;50.660;7.834;2023-05-27T07:07:53;152488.03;;;18.01;52.18
3796;BME280;1913;50.660;7.834;2023-05-27T07:10:18;152563.78;;;18.31;51.86
3796;BME280;1913;50.660;7.834;2023-05-27T07:12:44;152570.09;;;18.34;50.38
3796;BME280;1913;50.660;7.834;2023-05-27T07:15:10;152525.91;;;18.16;49.34
3796;BME280;1913;50.660;7.834;2023-05-27T07:17:35;152513.31;;;18.11;47.32
3796;BME280;1913;50.660;7.834;2023-05-27T07:20:01;152707.84;;;18.89;46.92
3796;BME280;1913;50.660;7.834;2023-05-27T07:22:27;152821.56;;;19.35;46.53
3796;BME280;1913;50.660;7.834;2023-05-27T07:24:53;152946.72;;;19.86;46.71
3796;BME280;1913;50.660;7.834;2023-05-27T07:27:18;153035.22;;;20.22;43.81
3796;BME280;1913;50.660;7.834;2023-05-27T07:29:43;153066.78;;;20.34;42.34
3796;BME280;1913;50.660;7.834;2023-05-27T07:32:09;152990.97;;;20.04;41.80
3796;BME280;1913;50.660;7.834;2023-05-27T07:34:34;152934.06;;;19.81;41.17
3796;BME280;1913;50.660;7.834;2023-05-27T07:37:00;152963.16;;;19.93;42.13
3796;BME280;1913;50.660;7.834;2023-05-27T07:39:25;153084.50;;;20.42;39.33
3796;BME280;1913;50.660;7.834;2023-05-27T07:41:51;153092.09;;;20.45;40.67
3796;BME280;1913;50.660;7.834;2023-05-27T07:44:18;153228.75;;;21.00;40.53
3796;BME280;1913;50.660;7.834;2023-05-27T07:46:43;153250.22;;;21.09;40.45
3796;BME280;1913;50.660;7.834;2023-05-27T07:49:08;153207.22;;;20.91;37.38
3796;BME280;1913;50.660;7.834;2023-05-27T07:51:37;153152.84;;;20.69;38.29
3796;BME280;1913;50.660;7.834;2023-05-27T07:54:02;152972.00;;;19.96;37.79
3796;BME280;1913;50.660;7.834;2023-05-27T07:56:28;152968.19;;;19.95;39.72
3796;BME280;1913;50.660;7.834;2023-05-27T07:58:53;152899.91;;;19.67;39.55
3796;BME280;1913;50.660;7.834;2023-05-27T08:01:19;152884.75;;;19.61;39.87
3796;BME280;1913;50.660;7.834;2023-05-27T08:03:44;152907.50;;;19.70;40.16
3796;BME280;1913;50.660;7.834;2023-05-27T08:06:10;152916.34;;;19.74;40.91
3796;BME280;1913;50.660;7.834;2023-05-27T08:08:35;152987.16;;;20.02;40.18
3796;BME280;1913;50.660;7.834;2023-05-27T08:11:01;153012.44;;;20.13;39.54
3796;BME280;1913;50.660;7.834;2023-05-27T08:13:26;153073.13;;;20.37;38.66
3796;BME280;1913;50.660;7.834;2023-05-27T08:15:52;153064.28;;;20.33;39.96
3796;BME280;1913;50.660;7.834;2023-05-27T08:18:17;153030.13;;;20.20;39.90
3796;BME280;1913;50.660;7.834;2023-05-27T08:20:42;153123.75;;;20.58;40.08
3796;BME280;1913;50.660;7.834;2023-05-27T08:23:08;153170.53;;;20.76;39.13
3796;BME280;1913;50.660;7.834;2023-05-27T08:25:33;153235.06;;;21.02;37.47
3796;BME280;1913;50.660;7.834;2023-05-27T08:27:59;153165.50;;;20.74;37.41
3796;BME280;1913;50.660;7.834;2023-05-27T08:30:27;153162.94;;;20.73;37.73
3796;BME280;1913;50.660;7.834;2023-05-27T08:32:57;153302.09;;;21.29;37.34
3796;BME280;1913;50.660;7.834;2023-05-27T08:35:23;153179.41;;;20.80;35.91
3796;BME280;1913;50.660;7.834;2023-05-27T08:37:48;153137.66;;;20.63;36.47
3796;BME280;1913;50.660;7.834;2023-05-27T08:40:15;153165.50;;;20.74;35.56
3796;BME280;1913;50.660;7.834;2023-05-27T08:42:41;153202.19;;;20.89;37.22
3796;BME280;1913;50.660;7.834;2023-05-27T08:45:08;153308.44;;;21.32;37.63
3796;BME280;1913;50.660;7.834;2023-05-27T08:47:34;153250.22;;;21.09;34.56
3796;BME280;1913;50.660;7.834;2023-05-27T08:50:00;153264.16;;;21.14;35.63
3796;BME280;1913;50.660;7.834;2023-05-27T08:52:29;153192.06;;;20.85;32.93
3796;BME280;1913;50.660;7.834;2023-05-27T08:54:58;153355.28;;;21.51;32.81
3796;BME280;1913;50.660;7.834;2023-05-27T08:57:33;153397.03;;;21.68;34.30
3796;BME280;1913;50.660;7.834;2023-05-27T08:59:58;153467.91;;;21.96;35.88
3796;BME280;1913;50.660;7.834;2023-05-27T09:02:24;153545.16;;;22.28;36.87
3796;BME280;1913;50.660;7.834;2023-05-27T09:04:52;153552.78;;;22.31;33.83
3796;BME280;1913;50.660;7.834;2023-05-27T09:07:21;153598.34;;;22.49;34.72
3796;BME280;1913;50.660;7.834;2023-05-27T09:09:56;153667.97;;;22.77;34.49
3796;BME280;1913;50.660;7.834;2023-05-27T09:12:26;153669.22;;;22.78;32.06
3796;BME280;1913;50.660;7.834;2023-05-27T09:14:52;153617.31;;;22.57;31.43
3796;BME280;1913;50.660;7.834;2023-05-27T09:17:22;153694.56;;;22.88;32.83
3796;BME280;1913;50.660;7.834;2023-05-27T09:19:50;153751.56;;;23.11;31.29
3796;BME280;1913;50.660;7.834;2023-05-27T09:22:40;153717.38;;;22.97;33.71
3796;BME280;1913;50.660;7.834;2023-05-27T09:25:07;153746.53;;;23.09;35.00
3796;BME280;1913;50.660;7.834;2023-05-27T09:27:32;153689.47;;;22.86;33.77
3796;BME280;1913;50.660;7.834;2023-05-27T09:30:05;153788.28;;;23.26;32.54
3796;BME280;1913;50.660;7.834;2023-05-27T09:32:32;153826.31;;;23.41;32.47
3796;BME280;1913;50.660;7.834;2023-05-27T09:34:59;153893.47;;;23.68;33.34
3796;BME280;1913;50.660;7.834;2023-05-27T09:37:30;153920.06;;;23.79;32.50
3796;BME280;1913;50.660;7.834;2023-05-27T09:40:07;154073.47;;;24.41;34.12
3796;BME280;1913;50.660;7.834;2023-05-27T09:42:46;154129.22;;;24.63;30.31
3796;BME280;1913;50.660;7.834;2023-05-27T09:45:19;153972.00;;;24.00;30.51
3796;BME280;1913;50.660;7.834;2023-05-27T09:47:50;153973.28;;;24.00;31.38
3796;BME280;1913;50.660;7.834;2023-05-27T09:50:16;154138.06;;;24.67;31.20
3796;BME280;1913;50.660;7.834;2023-05-27T09:52:46;154084.84;;;24.45;30.95
3796;BME280;1913;50.660;7.834;2023-05-27T09:55:13;154144.44;;;24.69;31.05
3796;BME280;1913;50.660;7.834;2023-05-27T09:57:39;154311.81;;;25.37;29.42
3796;BME280;1913;50.660;7.834;2023-05-27T10:00:07;154250.94;;;25.12;30.18
3796;BME280;1913;50.660;7.834;2023-05-27T10:02:42;154398.00;;;25.71;29.80
3796;BME280;1913;50.660;7.834;2023-05-27T10:05:11;154145.69;;;24.70;30.89
3796;BME280;1913;50.660;7.834;2023-05-27T10:07:38;154269.97;;;25.20;30.41
3796;BME280;1913;50.660;7.834;2023-05-27T10:10:10;154193.84;;;24.89;29.38
3796;BME280;1913;50.660;7.834;2023-05-27T10:12:37;154344.75;;;25.50;28.46
3796;BME280;1913;50.660;7.834;2023-05-27T10:15:04;154365.06;;;25.58;28.06
3796;BME280;1913;50.660;7.834;2023-05-27T10:20:12;154304.19;;;25.34;28.76
3796;BME280;1913;50.660;7.834;2023-05-27T10:22:45;154437.38;;;25.87;28.60
3796;BME280;1913;50.660;7.834;2023-05-27T10:25:12;154568.03;;;26.40;28.45
3796;BME280;1913;50.660;7.834;2023-05-27T10:27:46;154620.06;;;26.61;27.81
3796;BME280;1913;50.660;7.834;2023-05-27T10:30:15;154568.03;;;26.40;27.65
3796;BME280;1913;50.660;7.834;2023-05-27T10:32:50;154650.53;;;26.73;28.67
3796;BME280;1913;50.660;7.834;2023-05-27T10:35:16;154438.66;;;25.88;26.52
3796;BME280;1913;50.660;7.834;2023-05-27T10:37:42;154380.25;;;25.64;26.81
3796;BME280;1913;50.660;7.834;2023-05-27T10:40:09;154417.06;;;25.79;27.71
3796;BME280;1913;50.660;7.834;2023-05-27T10:42:35;154639.13;;;26.68;25.34
3796;BME280;1913;50.660;7.834;2023-05-27T10:45:05;154733.00;;;27.06;23.25
3796;BME280;1913;50.660;7.834;2023-05-27T10:47:34;154848.53;;;27.53;23.91
3796;BME280;1913;50.660;7.834;2023-05-27T10:50:09;154611.19;;;26.57;23.11
3796;BME280;1913;50.660;7.834;2023-05-27T10:52:37;154587.13;;;26.47;24.96
3796;BME280;1913;50.660;7.834;2023-05-27T10:55:05;154607.41;;;26.56;22.87
3796;BME280;1913;50.660;7.834;2023-05-27T10:57:32;154570.56;;;26.41;24.20
3796;BME280;1913;50.660;7.834;2023-05-27T11:00:02;154557.84;;;26.36;23.72
3796;BME280;1913;50.660;7.834;2023-05-27T11:02:32;154503.31;;;26.14;23.44
3796;BME280;1913;50.660;7.834;2023-05-27T11:05:00;154502.06;;;26.13;23.73
3796;BME280;1913;50.660;7.834;2023-05-27T11:07:26;154717.75;;;27.00;23.41
3796;BME280;1913;50.660;7.834;2023-05-27T11:09:55;154617.53;;;26.60;20.14
3796;BME280;1913;50.660;7.834;2023-05-27T11:12:22;154564.22;;;26.38;22.84
3796;BME280;1913;50.660;7.834;2023-05-27T11:14:49;154611.19;;;26.57;21.57
3796;BME280;1913;50.660;7.834;2023-05-27T11:17:16;154575.63;;;26.43;24.21
3796;BME280;1913;50.660;7.834;2023-05-27T11:19:42;154493.19;;;26.10;23.34
3796;BME280;1913;50.660;7.834;2023-05-27T11:22:10;154329.56;;;25.44;25.38
3796;BME280;1913;50.660;7.834;2023-05-27T11:24:36;154381.50;;;25.65;24.89
3796;BME280;1913;50.660;7.834;2023-05-27T11:27:09;154422.16;;;25.81;25.90
3796;BME280;1913;50.660;7.834;2023-05-27T11:29:39;154239.47;;;25.07;27.54
3796;BME280;1913;50.660;7.834;2023-05-27T11:32:06;154245.81;;;25.10;26.31
3796;BME280;1913;50.660;7.834;2023-05-27T11:34:36;154186.22;;;24.86;28.43
3796;BME280;1913;50.660;7.834;2023-05-27T11:37:04;154261.09;;;25.16;27.45
3796;BME280;1913;50.660;7.834;2023-05-27T11:39:31;154220.44;;;25.00;23.37
3796;BME280;1913;50.660;7.834;2023-05-27T11:41:57;154306.72;;;25.35;21.62
3796;BME280;1913;50.660;7.834;2023-05-27T11:44:25;154418.38;;;25.79;24.13
3796;BME280;1913;50.660;7.834;2023-05-27T11:46:52;154451.31;;;25.93;24.14
3796;BME280;1913;50.660;7.834;2023-05-27T11:49:19;154568.03;;;26.40;23.18
3796;BME280;1913;50.660;7.834;2023-05-27T11:51:47;154464.03;;;25.98;23.69
3796;BME280;1913;50.660;7.834;2023-05-27T11:54:22;154616.28;;;26.59;22.87
3796;BME280;1913;50.660;7.834;2023-05-27T11:56:49;154601.03;;;26.53;23.26
3796;BME280;1913;50.660;7.834;2023-05-27T11:59:15;154698.75;;;26.92;24.32
3796;BME280;1913;50.660;7.834;2023-05-27T12:01:41;154565.47;;;26.39;23.42
3796;BME280;1913;50.660;7.834;2023-05-27T12:04:07;154621.38;;;26.61;24.20
3796;BME280;1913;50.660;7.834;2023-05-27T12:06:32;154513.47;;;26.18;24.36
3796;BME280;1913;50.660;7.834;2023-05-27T12:08:58;154686.06;;;26.87;23.91
3796;BME280;1913;50.660;7.834;2023-05-27T12:11:23;154833.34;;;27.47;25.25
3796;BME280;1913;50.660;7.834;2023-05-27T12:13:50;154781.31;;;27.26;23.79
3796;BME280;1913;50.660;7.834;2023-05-27T12:16:16;154941.28;;;27.90;23.88
3796;BME280;1913;50.660;7.834;2023-05-27T12:18:41;154995.88;;;28.12;24.03
3796;BME280;1913;50.660;7.834;2023-05-27T12:21:07;154825.72;;;27.43;22.42
3796;BME280;1913;50.660;7.834;2023-05-27T12:23:33;154778.72;;;27.25;24.55
3796;BME280;1913;50.660;7.834;2023-05-27T12:25:59;154796.50;;;27.32;23.29
3796;BME280;1913;50.660;7.834;2023-05-27T12:28:25;154693.69;;;26.90;22.85
3796;BME280;1913;50.660;7.834;2023-05-27T12:30:51;154796.50;;;27.32;22.72
3796;BME280;1913;50.660;7.834;2023-05-27T12:33:17;154885.34;;;27.67;23.74
3796;BME280;1913;50.660;7.834;2023-05-27T12:35:42;154697.47;;;26.92;23.10
3796;BME280;1913;50.660;7.834;2023-05-27T12:38:07;154792.72;;;27.30;23.16
3796;BME280;1913;50.660;7.834;2023-05-27T12:40:33;154870.16;;;27.61;25.74
3796;BME280;1913;50.660;7.834;2023-05-27T12:42:58;154694.94;;;26.91;24.58
3796;BME280;1913;50.660;7.834;2023-05-27T12:45:25;154615.03;;;26.59;24.17
3796;BME280;1913;50.660;7.834;2023-05-27T12:47:52;154556.59;;;26.35;23.78
3796;BME280;1913;50.660;7.834;2023-05-27T12:50:17;154584.53;;;26.46;25.23
3796;BME280;1913;50.660;7.834;2023-05-27T12:52:43;154408.13;;;25.75;27.10
3796;BME280;1913;50.660;7.834;2023-05-27T12:55:16;154548.97;;;26.32;24.75
3796;BME280;1913;50.660;7.834;2023-05-27T12:57:43;154557.84;;;26.36;26.36
3796;BME280;1913;50.660;7.834;2023-05-27T13:00:09;154432.28;;;25.85;27.02
3796;BME280;1913;50.660;7.834;2023-05-27T13:02:35;154461.44;;;25.97;27.44
3796;BME280;1913;50.660;7.834;2023-05-27T13:05:02;154436.13;;;25.87;27.84
3796;BME280;1913;50.660;7.834;2023-05-27T13:07:27;154474.16;;;26.02;26.53
3796;BME280;1913;50.660;7.834;2023-05-27T13:09:54;154634.03;;;26.66;27.59